CDT,Max TemperatureF,Mean TemperatureF,Min TemperatureF,Max Dew PointF,MeanDew PointF,Min DewpointF,Max Humidity, Mean Humidity, Min Humidity, Max Sea Level PressureIn, Mean Sea Level PressureIn, Min Sea Level PressureIn, Max VisibilityMiles, Mean VisibilityMiles, Min VisibilityMiles, Max Wind SpeedMPH, Mean Wind SpeedMPH, Max Gust SpeedMPH,PrecipitationIn, CloudCover, Events, WindDirDegrees
2011-9-1,93,83,73,74,69,64,94,68,37,30.10,30.04,29.98,10,10,8,9,3,,0.00,0,,102
2011-9-2,91,82,72,74,66,58,93,64,35,30.05,29.98,29.91,10,10,9,10,3,22,0.00,1,Hail,97
2011-9-3,88,80,71,68,63,58,75,60,37,29.92,29.86,29.81,10,10,10,14,5,23,0.00,0,Rain-Hail,112
2011-9-4,78,74,71,74,72,68,97,93,81,29.86,29.79,29.74,10,9,2,14,8,22,1.08,6,Rain-Hail,114
2011-9-5,81,72,63,76,72,60,97,92,81,29.73,29.56,29.36,10,7,2,22,10,32,1.95,6,Rain,169
2011-9-6,69,63,57,59,56,53,93,82,63,29.96,29.81,29.66,10,10,10,14,10,25,0.00,6,,294
2011-9-7,73,64,54,63,57,52,97,77,55,30.02,29.98,29.95,10,10,10,10,3,,0.00,3,,296
2011-9-8,81,70,59,61,57,53,93,69,39,30.01,29.96,29.91,10,10,10,10,3,,0.00,0,,304
2011-9-9,82,68,54,61,56,52,93,67,36,29.99,29.95,29.92,10,10,10,7,2,,0.00,0,,354
2011-9-10,86,70,55,60,55,50,93,64,29,30.05,30.01,29.97,10,10,10,6,1,,0.00,0,,338
2011-9-11,87,71,55,65,56,51,90,63,30,30.12,30.07,30.03,10,10,10,6,1,,0.00,0,Hail,301
2011-9-12,88,74,60,67,62,57,90,69,40,30.14,30.07,30.01,10,10,10,12,2,16,0.00,0,,287
2011-9-13,90,80,68,67,64,57,90,72,33,30.04,30.00,29.96,10,10,10,8,1,,0.00,0,,295
2011-9-14,90,77,64,69,64,60,90,70,37,30.00,29.94,29.89,10,10,9,6,2,,0.00,0,,114
2011-9-15,79,72,66,70,64,58,87,77,69,30.08,29.99,29.91,10,10,8,12,5,17,0.00,5,,308
2011-9-16,82,72,62,64,59,56,81,70,47,30.14,30.10,30.05,10,10,10,10,5,,0.00,4,Hail,2
2011-9-17,84,73,62,68,62,55,81,71,55,30.19,30.13,30.08,10,10,10,7,5,,0.00,1,,76
2011-9-18,81,72,64,67,64,61,90,76,60,30.21,30.15,30.10,10,10,10,10,4,,0.00,2,,91
2011-9-19,82,73,64,69,64,59,91,74,54,30.11,30.05,29.97,10,10,10,10,4,,0.00,0,Hail,121
2011-9-20,82,76,70,74,70,68,97,89,67,30.02,29.97,29.92,10,9,5,12,3,,0.14,3,Rain-Thunderstorm,81
2011-9-21,84,76,68,75,70,67,100,90,63,30.08,30.03,29.96,10,6,0,12,1,18,0.19,5,Fog-Rain-Thunderstorm,75
2011-9-22,84,76,68,74,69,67,97,89,67,30.07,30.03,29.98,10,8,2,17,3,24,0.08,1,Rain-Hail-Thunderstorm,123
2011-9-23,84,75,66,70,67,65,100,88,56,30.04,29.99,29.93,10,6,0,8,1,,0.00,5,Fog,330
2011-9-24,86,74,62,66,62,59,93,74,44,29.99,29.95,29.89,10,10,9,7,3,,0.00,0,Hail,336
2011-9-25,88,75,62,69,63,59,93,71,45,29.96,29.89,29.83,10,10,9,7,2,,0.00,0,Hail,165
2011-9-26,89,80,70,71,68,60,100,78,38,29.94,29.89,29.85,10,7,1,9,5,,0.00,2,,230
2011-9-27,82,74,66,70,65,61,93,77,49,30.02,29.92,29.88,10,10,9,17,2,28,0.00,1,Rain-Hail-Thunderstorm,292
2011-9-28,72,52,32,67,65,32,100,90,78,29.98,29.91,29.86,10,9,2,21,5,29,0.56,3,Rain-Hail-Thunderstorm,227
2011-9-29,84,74,64,67,64,56,100,84,38,29.96,29.90,29.86,10,6,0,9,2,,0.00,4,Fog,342
2011-9-30,81,71,61,62,53,42,93,60,26,29.97,29.91,29.87,10,10,10,14,4,23,0.00,0,,325